• Join FlightAware (Why Join?)
  • Login
  • US Flag 
08:04AM EDT


 

Airport Tracker/Info


-or-


 

Live Flight TrackerFlight Track Log ✈ AFL150 ✈ 01-Nov-2013 ✈ UUEE / SVO - MUHA / HAV

Flight Track Log - Related Links

Times and Time Zones

All times are in EDT time to prevent confusion due to time zone crossing. See the AFL150 flight status page for this flight to view local times or setup timezone preferences in your user account.

Time Position Orientation Groundspeed Altitude Reporting Facility
EDT Latitude Longitude Course Direction KTS MPH feet Rate Location/Type
06:27AM 55.9730 37.4290 344° North 110 127  Level FlightAware
06:28AM 55.9660 37.3810 255° West 165 190 1,600 2,580 Climbing FlightAware
06:29AM 55.9560 37.3170 254° West 161 185 3,800 2,220 Climbing FlightAware
06:29AM 55.9480 37.2550 257° West 187 215 5,200 1,500 Climbing FlightAware
06:30AM 55.9440 37.2230 257° West 204 235 5,500 660 Climbing FlightAware
06:31AM 55.9660 37.1290 293° West 245 282 6,100 1,140 Climbing FlightAware
06:31AM 55.9930 37.0460 300° West 260 299 7,500 2,160 Climbing FlightAware
06:32AM 56.0130 36.9860 301° West 269 310 8,900 2,400 Climbing FlightAware
06:33AM 56.0310 36.9020 291° West 285 328 10,400 2,100 Climbing FlightAware
06:33AM 56.0460 36.8050 286° West 317 365 11,700 2,460 Climbing FlightAware
06:34AM 56.0570 36.7200 283° West 333 383 13,400 3,060 Climbing FlightAware
06:34AM 56.0690 36.6110 281° West 351 404 15,400 3,120 Climbing FlightAware
06:35AM 56.0800 36.5070 281° West 360 414 17,400 3,180 Climbing FlightAware
06:36AM 56.0920 36.3870 280° West 364 419 19,500 3,000 Climbing FlightAware
06:36AM 56.1050 36.2690 281° West 373 429 21,400 2,640 Climbing FlightAware
06:37AM 56.1280 36.0620 281° West 384 442 24,300 2,340 Climbing FlightAware
06:38AM 56.1400 35.9460 281° West 391 450 25,500 1,860 Climbing FlightAware
06:39AM 56.1540 35.8190 281° West 391 450 26,700 1,800 Climbing FlightAware
06:40AM 56.1770 35.6000 281° West 408 470 28,800 1,560 Climbing FlightAware
06:41AM 56.1950 35.4280 281° West 421 484 29,800 1,500 Climbing FlightAware
06:42AM 56.2120 35.2590 280° West 407 468 31,300 2,220 Climbing FlightAware
06:42AM 56.2280 35.0950 280° West 393 452 33,500 1,680 Climbing FlightAware
06:43AM 56.2420 34.9530 280° West 387 445 34,000 300 Climbing FlightAware
06:44AM 56.2560 34.8130 280° West 383 441 34,000  Level FlightAware
06:45AM 56.2690 34.6700 279° West 385 443 34,000  Level FlightAware
06:45AM 56.2820 34.5320 280° West 388 447 34,000  Level FlightAware
06:46AM 56.2900 34.4500 280° West 389 448 34,000  Level FlightAware
06:47AM 56.3050 34.2890 280° West 391 450 34,000  Level FlightAware
06:47AM 56.3130 34.1920 278° West 392 451 34,000  Level FlightAware
06:48AM 56.3260 34.0500 279° West 392 451 34,000  Level FlightAware
06:49AM 56.3390 33.9040 279° West 391 450 34,000  Level FlightAware
06:49AM 56.3500 33.7750 279° West 391 450 34,000  Level FlightAware
06:50AM 56.3600 33.6620 279° West 391 450 34,000  Level FlightAware
06:51AM 56.3730 33.5020 278° West 389 448 34,000  Level FlightAware
06:51AM 56.3830 33.3900 279° West 389 448 34,000  Level FlightAware
06:52AM 56.3930 33.2620 278° West 389 448 34,000  Level FlightAware
06:53AM 56.4050 33.1220 279° West 388 447 34,000  Level FlightAware
06:53AM 56.4150 32.9920 278° West 387 445 34,000  Level FlightAware
06:54AM 56.4270 32.8480 279° West 385 443 34,000  Level FlightAware
06:55AM 56.4370 32.7200 278° West 386 444 34,000  Level FlightAware
06:55AM 56.4470 32.5920 278° West 386 444 34,000  Level FlightAware
06:56AM 56.4560 32.4650 277° West 385 443 34,000  Level FlightAware
06:57AM 56.4640 32.3550 278° West 385 443 34,000  Level FlightAware
06:57AM 56.4710 32.2620 278° West 386 444 34,000  Level FlightAware
06:58AM 56.4790 32.1610 278° West 386 444 34,000  Level FlightAware
06:58AM 56.4860 32.0580 277° West 386 444 34,000  Level FlightAware
06:59AM 56.4950 31.9270 277° West 386 444 34,000  Level FlightAware
07:00AM 56.5010 31.8280 276° West 386 444 34,000  Level FlightAware
07:00AM 56.5080 31.7300 277° West 386 444 34,000  Level FlightAware
07:01AM 56.5170 31.5990 277° West 386 444 34,000  Level FlightAware
07:02AM 56.5230 31.5010 276° West 386 444 34,000  Level FlightAware
07:03AM 56.5340 31.3370 277° West 386 444 34,000  Level FlightAware
07:03AM 56.5410 31.2330 277° West 386 444 34,000  Level FlightAware
07:04AM 56.5460 31.1670 278° West 386 444 34,000  Level FlightAware
07:05AM 56.6460 30.8750 302° West 654 753 34,000  Level FlightAware
07:05AM 56.6970 30.7650 310° West 405 466 34,000  Level FlightAware
07:06AM 56.7330 30.6780 307° West 400 460 34,000  Level FlightAware
07:07AM 56.7890 30.5290 304° West 400 460 34,000  Level FlightAware
07:07AM 56.8290 30.4230 305° West 400 460 34,000  Level FlightAware
07:08AM 56.8900 30.2570 304° West 401 461 34,000  Level FlightAware
07:09AM 56.9450 30.1060 304° West 401 461 34,000 120 Level FlightAware
07:10AM 56.9900 29.9830 304° West 402 463 34,200 420 Climbing FlightAware
07:10AM 57.0150 29.9150 304° West 402 463 34,500 660 Climbing FlightAware
07:11AM 57.0770 29.7430 304° West 396 456 35,200 660 Climbing FlightAware
07:12AM 57.1220 29.6160 303° West 391 450 35,700 540 Climbing FlightAware
07:13AM 57.1580 29.5160 304° West 384 442 36,000 180 Climbing FlightAware
07:13AM 57.1980 29.4030 303° West 390 449 36,000  Level FlightAware
07:14AM 57.2410 29.2810 303° West 394 453 36,000  Level FlightAware
07:15AM 57.2780 29.1780 304° West 394 453 36,000  Level FlightAware
07:15AM 57.3100 29.0860 303° West 394 453 36,000  Level FlightAware
07:16AM 57.3430 28.9930 303° West 394 453 36,000  Level FlightAware
07:16AM 57.3770 28.8950 303° West 396 456 36,000  Level FlightAware
07:17AM 57.4150 28.7840 302° West 397 457 36,000  Level FlightAware
07:18AM 57.4520 28.6790 303° West 397 457 36,000  Level FlightAware
07:18AM 57.4820 28.5900 302° West 398 458 36,000  Level FlightAware
07:19AM 57.5190 28.4830 303° West 399 459 36,000  Level FlightAware
07:20AM 57.5580 28.3700 303° West 398 458 36,000  Level FlightAware
07:20AM 57.6090 28.2180 302° West 398 458 36,000  Level FlightAware
07:21AM 57.6480 28.1030 302° West 398 458 36,000  Level FlightAware
07:22AM 57.6780 28.0130 302° West 398 458 36,000  Level FlightAware
07:22AM 57.7200 27.8880 302° West 394 453 36,000  Level FlightAware
07:23AM 57.7640 27.7560 302° West 391 450 36,000  Level FlightAware
07:24AM 57.7930 27.6700 302° West 390 449 36,000  Level FlightAware
07:24AM 57.8230 27.5770 301° West 389 448 36,000  Level FlightAware
07:25AM 57.8510 27.4580 294° West 382 440 36,000  Level FlightAware
07:25AM 57.8710 27.3600 291° West 382 440 36,000  Level FlightAware
07:26AM 57.8970 27.2290 291° West 382 440 36,000  Level FlightAware
07:27AM 57.9260 27.0840 291° West 383 441 36,000  Level FlightAware
07:27AM 57.9520 26.9560 291° West 383 441 36,000  Level FlightAware
07:28AM 57.9770 26.8340 291° West 384 442 36,000  Level FlightAware
07:29AM 57.9940 26.7460 290° West 385 443 36,000  Level FlightAware
07:29AM 58.0220 26.6060 291° West 386 444 36,000  Level FlightAware
07:30AM 58.0540 26.4390 290° West 387 445 36,000  Level FlightAware
07:31AM 58.0830 26.2890 290° West 388 447 36,000  Level FlightAware
07:32AM 58.1050 26.1770 290° West 389 448 36,000  Level FlightAware
07:32AM 58.1290 26.0520 290° West 388 447 36,000  Level FlightAware
07:33AM 58.1590 25.8900 289° West 387 445 36,000  Level FlightAware
07:34AM 58.1810 25.7760 290° West 387 445 36,000  Level FlightAware
07:34AM 58.2080 25.6330 290° West 386 444 36,000  Level FlightAware
07:35AM 58.2300 25.5100 289° West 384 442 36,000  Level FlightAware
07:36AM 58.2570 25.3640 289° West 384 442 36,000  Level FlightAware
07:36AM 58.2790 25.2490 290° West 382 440 36,000  Level FlightAware
07:37AM 58.3060 25.0970 289° West 379 436 36,000  Level FlightAware
07:38AM 58.3300 24.9620 289° West 378 435 36,000  Level FlightAware
07:39AM 58.3560 24.8200 289° West 377 434 36,000  Level FlightAware
07:39AM 58.3790 24.6900 289° West 377 434 36,000  Level FlightAware
07:40AM 58.3980 24.5830 289° West 376 433 36,000  Level FlightAware
07:41AM 58.4220 24.4440 288° West 376 433 36,000  Level FlightAware
07:42AM 58.4450 24.2940 286° West 374 430 36,000  Level FlightAware
07:42AM 58.4660 24.1510 286° West 372 428 36,000  Level FlightAware
07:43AM 58.4850 24.0270 286° West 371 427 36,000  Level FlightAware
07:44AM 58.5020 23.9140 286° West 371 427 36,000  Level FlightAware
07:44AM 58.5220 23.7740 285° West 371 427 36,000  Level FlightAware
07:45AM 58.5430 23.6380 287° West 371 427 36,000  Level FlightAware
07:46AM 58.5620 23.5020 285° West 369 425 36,000  Level FlightAware
07:46AM 58.5830 23.3630 286° West 368 423 36,000  Level FlightAware
07:47AM 58.5980 23.2530 285° West 368 423 36,000  Level FlightAware
07:48AM 58.6160 23.1260 285° West 369 425 36,000  Level FlightAware
07:48AM 58.6310 23.0220 286° West 370 426 36,000  Level FlightAware
07:49AM 58.6460 22.9120 285° West 370 426 36,000  Level FlightAware
07:50AM 58.6680 22.7610 286° West 372 428 36,000  Level FlightAware
07:51AM 58.6910 22.5880 284° West 374 430 36,000  Level FlightAware
07:51AM 58.7080 22.4670 285° West 375 432 36,000  Level FlightAware
07:51AM 58.7136 22.4242 284° West 372 428 36,000  Level FlightAware ADS-B (YKMB / KRB)
07:53AM 58.7460 22.1870 285° West 377 434 36,000  Level FlightAware
07:53AM 58.7578 22.0949 284° West 378 435 36,000  Level FlightAware ADS-B (YKMB / KRB)
07:54AM 58.7739 21.9731 284° West 377 434 36,000  Level FlightAware ADS-B (YKMB / KRB)
07:54AM 58.7864 21.8771 284° West 379 436 36,000  Level FlightAware ADS-B (YKMB / KRB)
07:55AM 58.8000 21.7760 285° West 380 437 36,000  Level FlightAware
07:55AM 58.8028 21.7513 282° West 378 435 36,000  Level FlightAware ADS-B (YKMB / KRB)
07:55AM 58.8170 21.6424 284° West 378 435 36,000  Level FlightAware ADS-B (YKMB / KRB)
07:56AM 58.8302 21.5385 284° West 379 436 36,000  Level FlightAware ADS-B (YKMB / KRB)
07:57AM 58.8469 21.4071 284° West 379 436 36,000  Level FlightAware ADS-B (YKMB / KRB)
07:57AM 58.8631 21.2787 284° West 379 436 36,000  Level FlightAware ADS-B (YKMB / KRB)
07:58AM 58.8799 21.1441 284° West 378 435 36,000  Level FlightAware ADS-B (YKMB / KRB)
07:59AM 58.8963 21.0151 284° West 378 435 36,000  Level FlightAware ADS-B (YKMB / KRB)
07:59AM 58.9136 20.9173 289° West 380 437 36,000  Level FlightAware ADS-B (YKMB / KRB)
08:00AM 58.9358 20.8206 294° West 384 442 36,000  Level FlightAware ADS-B (YKMB / KRB)
08:00AM 58.9648 20.6984 295° West 383 441 36,000  Level FlightAware ADS-B (YKMB / KRB)
08:01AM 58.9843 20.5700 286° West 380 437 36,000  Level FlightAware ADS-B (YKMB / KRB)
08:01AM 58.9996 20.4684 286° West 381 438 36,000  Level FlightAware ADS-B (YKMB / KRB)
08:02AM 59.0155 20.3708 288° West 382 440 36,000  Level FlightAware ADS-B (YKMB / KRB)
08:03AM 59.0365 20.2443 288° West 381 438 36,000  Level FlightAware ADS-B (YKMB / KRB)
08:03AM 59.0532 20.1434 288° West 383 441 36,000  Level FlightAware ADS-B (YKMB / KRB)
08:04AM 59.0689 20.0464 288° West 384 442 36,000  Level FlightAware ADS-B (YKMB / KRB)
08:04AM 59.0847 19.9484 287° West 386 444 36,000  Level FlightAware ADS-B (YKMB / KRB)
08:05AM 59.1106 19.7837 287° West 384 442 36,000  Level FlightAware ADS-B (YKMB / KRB)
08:05AM 59.1263 19.6829 287° West 384 442 36,000  Level FlightAware ADS-B (YKMB / KRB)
08:06AM 59.1415 19.5852 287° West 385 443 36,000  Level FlightAware ADS-B (YKMB / KRB)
08:06AM 59.1570 19.4858 287° West 384 442 36,000  Level FlightAware ADS-B (YKMB / KRB)
08:07AM 59.1750 19.3670 287° West 386 444 36,000  Level FlightAware
08:07AM 59.1770 19.3533 286° West 385 443 36,000  Level FlightAware ADS-B (YKMB / KRB)
08:08AM 59.1923 19.2513 286° West 385 443 36,000  Level FlightAware ADS-B (YKMB / KRB)
08:08AM 59.2119 19.1189 286° West 385 443 36,000  Level FlightAware ADS-B (YKMB / KRB)
08:09AM 59.2269 19.0177 286° West 386 444 36,000  Level FlightAware ADS-B (YKMB / KRB)
08:09AM 59.2418 18.9163 286° West 387 445 36,000  Level FlightAware ADS-B (YKMB / KRB)
08:10AM 59.2569 18.8134 286° West 387 445 36,000  Level FlightAware ADS-B (YKMB / KRB)
08:10AM 59.2718 18.7109 286° West 388 447 36,000  Level FlightAware ADS-B (YKMB / KRB)
08:11AM 59.2910 18.5783 286° West 390 449 36,000  Level FlightAware ADS-B (YKMB / KRB)
08:11AM 59.3059 18.4730 286° West 392 451 36,000  Level FlightAware ADS-B (YKMB / KRB)
08:12AM 59.3204 18.3715 286° West 393 452 36,000  Level FlightAware ADS-B (YKMB / KRB)
08:12AM 59.3350 18.2681 286° West 395 455 36,000  Level FlightAware ADS-B (YKMB / KRB)
08:13AM 59.3540 18.1327 285° West 397 457 36,000  Level FlightAware ADS-B (YKMB / KRB)
08:14AM 59.3693 18.0233 285° West 399 459 36,000  Level FlightAware ADS-B (YKMB / KRB)
08:14AM 59.3880 17.8876 285° West 400 460 36,000  Level FlightAware ADS-B (YKMB / KRB)
08:15AM 59.4073 17.7470 285° West 399 459 36,000  Level FlightAware ADS-B (YKMB / KRB)
08:15AM 59.4214 17.6428 285° West 399 459 36,000  Level FlightAware ADS-B (YKMB / KRB)
08:16AM 59.4359 17.5350 285° West 400 460 36,000  Level FlightAware ADS-B (YKMB / KRB)
08:16AM 59.4503 17.4273 285° West 399 459 36,000  Level FlightAware ADS-B (YKMB / KRB)
08:17AM 59.4651 17.3168 285° West 399 459 36,000  Level FlightAware ADS-B (YKMB / KRB)
08:18AM 59.4826 17.1833 285° West 399 459 36,000  Level FlightAware ADS-B (YKMB / KRB)
08:18AM 59.5007 17.0453 285° West 400 460 36,000  Level FlightAware ADS-B (YKMB / KRB)
08:19AM 59.5147 16.9379 284° West 400 460 36,000  Level FlightAware ADS-B (YKMB / KRB)
08:19AM 59.5323 16.7998 284° West 401 461 36,000  Level FlightAware ADS-B (YKMB / KRB)
08:20AM 59.5462 16.6919 284° West 401 461 36,000  Level FlightAware ADS-B (YKMB / KRB)
08:20AM 59.5594 16.5874 284° West 401 461 36,000  Level FlightAware ADS-B (YKMB / KRB)
08:21AM 59.5729 16.4799 284° West 401 461 36,000  Level FlightAware ADS-B (YKMB / KRB)
08:22AM 59.5901 16.3427 284° West 400 460 36,000  Level FlightAware ADS-B (YKMB / KRB)
08:22AM 59.6081 16.1970 284° West 398 458 36,000  Level FlightAware ADS-B (YKMB / KRB)
08:23AM 59.6249 16.0589 284° West 399 459 36,000  Level FlightAware ADS-B (YKMB / KRB)
08:24AM 59.6413 15.9235 284° West 399 459 36,000  Level FlightAware ADS-B (YKMB / KRB)
08:24AM 59.6578 15.7865 283° West 399 459 36,000  Level FlightAware ADS-B (YKMB / KRB)
08:25AM 59.6843 15.5624 283° West 398 458 36,000  Level FlightAware ADS-B (YKMB / KRB)
08:26AM 59.7020 15.4130 283° West 399 459 36,000  Level FlightAware
08:27AM 59.7230 15.2270 283° West 399 459 36,000  Level FlightAware
08:28AM 59.7450 15.0400 283° West 397 457 36,000  Level FlightAware
08:29AM 59.7640 14.8630 282° West 398 458 36,000  Level FlightAware
08:29AM 59.7830 14.6960 283° West 398 458 36,000 -300 Level FlightAware
08:30AM 59.7970 14.5720 283° West 390 449 35,600 -900 Descending FlightAware
08:31AM 59.8120 14.4290 282° West 381 438 34,900 -960 Descending FlightAware
08:31AM 59.8230 14.3300 283° West 371 427 34,500 -960 Descending FlightAware
08:32AM 59.8340 14.2210 281° West 367 422 33,900 -1,140 Descending FlightAware
08:32AM 59.8490 14.0880 283° West 356 410 33,100 -1,620 Descending FlightAware
08:33AM 59.8620 13.9630 282° West 350 403 31,800 -1,980 Descending FlightAware
08:34AM 59.8790 13.7950 281° West 340 391 30,100 -1,860 Descending FlightAware
08:35AM 59.8910 13.6770 282° West 332 382 28,900 -1,860 Descending FlightAware
08:35AM 59.9050 13.5360 281° West 322 371 27,400 -1,860 Descending FlightAware
08:36AM 59.9220 13.4190 286° West 322 371 26,200 -1,440 Descending FlightAware
08:37AM 59.9390 13.3100 287° West 317 365 25,500 -1,680 Descending FlightAware
08:37AM 59.9570 13.1850 286° West 320 368 23,900 -2,160 Descending FlightAware
08:38AM 59.9700 13.0950 286° West 321 369 22,800 -2,160 Descending FlightAware
08:39AM 59.9880 12.9690 286° West 321 369 21,200 -2,220 Descending FlightAware
08:39AM 60.0050 12.8560 287° West 322 371 19,800 -1,980 Descending FlightAware
08:40AM 60.0240 12.7220 286° West 321 369 18,300 -1,860 Descending FlightAware
08:41AM 60.0410 12.5990 286° West 319 367 17,000 -1,920 Descending FlightAware
08:41AM 60.0550 12.5030 286° West 316 364 15,900 -1,860 Descending FlightAware
08:42AM 60.0680 12.4110 286° West 314 361 15,000 -1,740 Descending FlightAware
08:43AM 60.0820 12.3140 286° West 314 361 14,000 -1,740 Descending FlightAware
08:43AM 60.1200 12.2030 305° West 316 364 12,600 -1,620 Descending FlightAware
08:44AM 60.1600 12.1330 319° Northwest 304 350 11,800 -1,320 Descending FlightAware
08:45AM 60.2030 12.0590 319° Northwest 287 330 11,000 -960 Descending FlightAware
08:45AM 60.2360 12.0010 319° Northwest 266 306 10,600 -660 Descending FlightAware
08:46AM 60.2710 11.9670 334° Northwest 263 303 10,300 -480 Descending FlightAware
08:47AM 60.3270 12.0030 18° North 265 305 10,000 -240 Descending FlightAware
08:47AM 60.3680 12.0270 16° North 259 298 10,000  Level FlightAware
08:48AM 60.4120 11.9720 328° Northwest 231 266 10,000 -300 Level FlightAware
08:49AM 60.4170 11.8800 276° West 222 255 9,600 -1,020 Descending FlightAware
08:49AM 60.4180 11.7940 271° West 225 259 8,600 -1,440 Descending FlightAware
08:50AM 60.4200 11.7010 273° West 225 259 7,700 -900 Descending FlightAware
08:51AM 60.4230 11.6160 274° West 227 261 7,400 -660 Descending FlightAware
08:51AM 60.4260 11.5270 274° West 226 260 6,800 -900 Descending FlightAware
08:52AM 60.4270 11.4370 271° West 226 260 6,200 -780 Descending FlightAware
08:53AM 60.4290 11.3420 272° West 217 250 5,700 -840 Descending FlightAware
08:54AM 60.4200 11.2680 256° West 209 241 5,000 -780 Descending FlightAware
08:54AM 60.4010 11.2070 238° Southwest 182 209 4,700 -540 Descending FlightAware
08:55AM 60.3750 11.1850 203° Southwest 182 209 4,400 -660 Descending FlightAware
08:56AM 60.3430 11.1660 196° South 163 188 3,900 -840 Descending FlightAware
08:56AM 60.3210 11.1520 197° South 162 186 3,400 -960 Descending FlightAware
08:57AM 60.2840 11.1310 196° South 154 177 2,600 -900 Descending FlightAware
08:58AM 60.2580 11.1160 196° South 138 159 2,000 -780 Descending FlightAware
08:58AM 60.2310 11.1000 196° South 139 160 1,500 -780 Descending FlightAware
08:59AM 60.2070 11.0870 195° South 115 132 -2,280 Descending FlightAware
09:06AM 60.2632 10.5234 285° West  Level Estimated
09:07AM 60.2908 10.3033 284° West  Level Estimated
09:08AM 60.3181 10.0828 284° West  Level Estimated
09:09AM 60.3451 9.8620 284° West  Level Estimated
09:10AM 60.3716 9.6408 284° West  Level Estimated
09:11AM 60.3978 9.4192 284° West  Level Estimated
09:12AM 60.4236 9.1973 283° West  Level Estimated
09:13AM 60.4491 8.9750 283° West  Level Estimated
09:14AM 60.4742 8.7524 283° West  Level Estimated
09:15AM 60.4989 8.5295 283° West  Level Estimated
09:16AM 60.5232 8.3062 283° West  Level Estimated
09:17AM 60.5472 8.0825 282° West  Level Estimated
09:18AM 60.5708 7.8586 282° West  Level Estimated
09:19AM 60.5940 7.6343 282° West  Level Estimated
09:20AM 60.6168 7.4097 282° West  Level Estimated
09:21AM 60.6393 7.1848 282° West  Level Estimated
09:22AM 60.6614 6.9595 281° West  Level Estimated
09:23AM 60.6831 6.7340 281° West  Level Estimated
09:24AM 60.7044 6.5082 281° West  Level Estimated
09:25AM 60.7254 6.2820 281° West  Level Estimated
09:26AM 60.7459 6.0556 281° West  Level Estimated
09:27AM 60.7661 5.8289 280° West  Level Estimated
09:28AM 60.7859 5.6019 280° West  Level Estimated
09:29AM 60.8053 5.3746 280° West  Level Estimated
09:30AM 60.8244 5.1470 280° West  Level Estimated
09:31AM 60.8430 4.9192 280° West  Level Estimated
09:32AM 60.8613 4.6912 279° West  Level Estimated
09:33AM 60.8792 4.4628 279° West  Level Estimated
09:34AM 60.8966 4.2342 279° West  Level Estimated
09:35AM 60.9137 4.0054 279° West  Level Estimated
09:36AM 60.9305 3.7763 279° West  Level Estimated
09:37AM 60.9468 3.5470 278° West  Level Estimated
09:38AM 60.9627 3.3174 278° West  Level Estimated
09:39AM 60.9782 3.0877 278° West  Level Estimated
09:40AM 60.9934 2.8577 278° West  Level Estimated
09:41AM 61.0081 2.6274 278° West  Level Estimated
09:42AM 61.0225 2.3970 277° West  Level Estimated
09:43AM 61.0365 2.1664 277° West  Level Estimated
09:44AM 61.0501 1.9355 277° West  Level Estimated
09:45AM 61.0633 1.7045 277° West  Level Estimated
09:46AM 61.0760 1.4733 277° West  Level Estimated
09:47AM 61.0884 1.2419 276° West  Level Estimated
09:48AM 61.1004 1.0103 276° West  Level Estimated
09:49AM 61.1120 0.7785 276° West  Level Estimated
09:50AM 61.1232 0.5466 276° West  Level Estimated
09:51AM 61.1340 0.3145 276° West  Level Estimated
09:52AM 61.1445 0.0823 275° West  Level Estimated
09:53AM 61.1545 -0.1501 275° West  Level Estimated
09:54AM 61.1641 -0.3826 275° West  Level Estimated
09:55AM 61.1733 -0.6153 275° West  Level Estimated
09:56AM 61.1821 -0.8481 275° West  Level Estimated
09:57AM 61.1905 -1.0811 274° West  Level Estimated
09:58AM 61.1986 -1.3141 274° West  Level Estimated
09:59AM 61.2062 -1.5473 274° West  Level Estimated
10:00AM 61.2134 -1.7806 274° West  Level Estimated
10:01AM 61.2202 -2.0140 274° West  Level Estimated
10:02AM 61.2266 -2.2474 273° West  Level Estimated
10:03AM 61.2326 -2.4810 273° West  Level Estimated
10:04AM 61.2382 -2.7147 273° West  Level Estimated
10:05AM 61.2434 -2.9484 273° West  Level Estimated
10:06AM 61.2482 -3.1822 273° West  Level Estimated
10:07AM 61.2526 -3.4161 272° West  Level Estimated
10:08AM 61.2566 -3.6501 272° West  Level Estimated
10:09AM 61.2602 -3.8841 272° West  Level Estimated
10:10AM 61.2634 -4.1181 272° West  Level Estimated
10:11AM 61.2662 -4.3522 272° West  Level Estimated
10:12AM 61.2686 -4.5864 271° West  Level Estimated
10:13AM 61.2706 -4.8205 271° West  Level Estimated
10:14AM 61.2721 -5.0547 271° West  Level Estimated
10:15AM 61.2733 -5.2890 271° West  Level Estimated
10:16AM 61.2741 -5.5232 270° West  Level Estimated
10:17AM 61.2745 -5.7574 270° West  Level Estimated
10:18AM 61.2744 -5.9917 270° West  Level Estimated
10:19AM 61.2740 -6.2259 270° West  Level Estimated
10:20AM 61.2732 -6.4601 270° West  Level Estimated
10:21AM 61.2719 -6.6944 269° West  Level Estimated
10:22AM 61.2703 -6.9285 269° West  Level Estimated
10:23AM 61.2682 -7.1627 269° West  Level Estimated
10:24AM 61.2658 -7.3969 269° West  Level Estimated
10:25AM 61.2629 -7.6309 269° West  Level Estimated
10:26AM 61.2596 -7.8650 268° West  Level Estimated
10:27AM 61.2560 -8.0990 268° West  Level Estimated
10:28AM 61.2519 -8.3329 268° West  Level Estimated
10:29AM 61.2474 -8.5668 268° West  Level Estimated
10:30AM 61.2425 -8.8006 268° West  Level Estimated
10:31AM 61.2373 -9.0343 267° West  Level Estimated
10:32AM 61.2316 -9.2680 267° West  Level Estimated
10:33AM 61.2255 -9.5015 267° West  Level Estimated
10:34AM 61.2190 -9.7350 267° West  Level Estimated
10:35AM 61.2122 -9.9684 267° West  Level Estimated
10:36AM 61.2049 -10.2016 266° West  Level Estimated
10:37AM 61.1972 -10.4348 266° West  Level Estimated
10:38AM 61.1891 -10.6678 266° West  Level Estimated
10:39AM 61.1806 -10.9007 266° West  Level Estimated
10:40AM 61.1717 -11.1335 266° West  Level Estimated
10:41AM 61.1625 -11.3662 265° West  Level Estimated
10:42AM 61.1528 -11.5987 265° West  Level Estimated
10:43AM 61.1427 -11.8311 265° West  Level Estimated
10:44AM 61.1322 -12.0633 265° West  Level Estimated
10:45AM 61.1213 -12.2953 265° West  Level Estimated
10:46AM 61.1101 -12.5272 264° West  Level Estimated
10:47AM 61.0984 -12.7590 264° West  Level Estimated
10:48AM 61.0863 -12.9905 264° West  Level Estimated
10:49AM 61.0739 -13.2219 264° West  Level Estimated
10:50AM 61.0610 -13.4531 264° West  Level Estimated
10:51AM 61.0478 -13.6841 263° West  Level Estimated
10:52AM 61.0341 -13.9149 263° West  Level Estimated
10:53AM 61.0201 -14.1455 263° West  Level Estimated
10:54AM 61.0056 -14.3758 263° West  Level Estimated
10:55AM 60.9908 -14.6060 263° West  Level Estimated
10:56AM 60.9756 -14.8360 262° West  Level Estimated
10:57AM 60.9600 -15.0657 262° West  Level Estimated
10:58AM 60.9440 -15.2952 262° West  Level Estimated
10:59AM 60.9276 -15.5245 262° West  Level Estimated
11:00AM 60.9108 -15.7536 262° West  Level Estimated
11:01AM 60.8937 -15.9824 261° West  Level Estimated
11:02AM 60.8761 -16.2109 261° West  Level Estimated
11:03AM 60.8582 -16.4392 261° West  Level Estimated
11:04AM 60.8398 -16.6672 261° West  Level Estimated
11:05AM 60.8211 -16.8950 261° West  Level Estimated
11:06AM 60.8020 -17.1225 260° West  Level Estimated
11:07AM 60.7825 -17.3497 260° West  Level Estimated
11:08AM 60.7627 -17.5767 260° West  Level Estimated
11:09AM 60.7424 -17.8034 260° West  Level Estimated
11:10AM 60.7218 -18.0297 260° West  Level Estimated
11:11AM 60.7008 -18.2558 259° West  Level Estimated
11:12AM 60.6794 -18.4816 259° West  Level Estimated
11:13AM 60.6576 -18.7071 259° West  Level Estimated
11:14AM 60.6355 -18.9323 259° West  Level Estimated
11:15AM 60.6129 -19.1571 259° West  Level Estimated
11:16AM 60.5900 -19.3817 258° West  Level Estimated
11:17AM 60.5668 -19.6059 258° West  Level Estimated
11:18AM 60.5431 -19.8298 258° West  Level Estimated
11:19AM 60.5191 -20.0534 258° West  Level Estimated
11:20AM 60.4947 -20.2766 258° West  Level Estimated
11:21AM 60.4699 -20.4995 257° West  Level Estimated
11:22AM 60.4447 -20.7221 257° West  Level Estimated
11:23AM 60.4192 -20.9443 257° West  Level Estimated
11:24AM 60.3933 -21.1661 257° West  Level Estimated
11:25AM 60.3671 -21.3876 257° West  Level Estimated
11:26AM 60.3405 -21.6088 256° West  Level Estimated
11:27AM 60.3135 -21.8296 256° West  Level Estimated
11:28AM 60.2861 -22.0500 256° West  Level Estimated
11:29AM 60.2584 -22.2700 256° West  Level Estimated
11:30AM 60.2303 -22.4897 256° West  Level Estimated
11:31AM 60.2019 -22.7090 255° West  Level Estimated
11:32AM 60.1731 -22.9279 255° West  Level Estimated
11:33AM 60.1439 -23.1464 255° West  Level Estimated
11:34AM 60.1144 -23.3646 255° West  Level Estimated
11:35AM 60.0845 -23.5823 255° West  Level Estimated
11:36AM 60.0543 -23.7996 255° West  Level Estimated
11:37AM 60.0237 -24.0166 254° West  Level Estimated
11:38AM 59.9927 -24.2331 254° West  Level Estimated
11:39AM 59.9614 -24.4492 254° West  Level Estimated
11:40AM 59.9297 -24.6650 254° West  Level Estimated
11:41AM 59.8977 -24.8803 254° West  Level Estimated
11:42AM 59.8654 -25.0952 253° West  Level Estimated
11:43AM 59.8327 -25.3096 253° West  Level Estimated
11:44AM 59.7996 -25.5237 253° West  Level Estimated
11:45AM 59.7662 -25.7373 253° West  Level Estimated
11:46AM 59.7325 -25.9505 253° West  Level Estimated
11:47AM 59.6984 -26.1633 252° West  Level Estimated
11:48AM 59.6639 -26.3756 252° West  Level Estimated
11:49AM 59.6292 -26.5875 252° West  Level Estimated
11:50AM 59.5940 -26.7989 252° West  Level Estimated
11:51AM 59.5586 -27.0099 252° West  Level Estimated
11:52AM 59.5228 -27.2205 252° West  Level Estimated
11:53AM 59.4866 -27.4306 251° West  Level Estimated
11:54AM 59.4502 -27.6403 251° West  Level Estimated
11:55AM 59.4133 -27.8495 251° West  Level Estimated
11:56AM 59.3762 -28.0582 251° West  Level Estimated
11:57AM 59.3387 -28.2665 251° West  Level Estimated
11:58AM 59.3009 -28.4743 250° West  Level Estimated
11:59AM 59.2628 -28.6817 250° West  Level Estimated
12:00PM 59.2243 -28.8886 250° West  Level Estimated
12:01PM 59.1855 -29.0950 250° West  Level Estimated
12:02PM 59.1464 -29.3010 250° West  Level Estimated
12:03PM 59.1070 -29.5065 250° West  Level Estimated
12:04PM 59.0672 -29.7115 249° West  Level Estimated
12:05PM 59.0271 -29.9160 249° West  Level Estimated
12:06PM 58.9867 -30.1201 249° West  Level Estimated
12:07PM 58.9460 -30.3237 249° West  Level Estimated
12:08PM 58.9049 -30.5268 249° West  Level Estimated
12:09PM 58.8635 -30.7294 249° West  Level Estimated
12:10PM 58.8219 -30.9315 248° West  Level Estimated
12:11PM 58.7799 -31.1331 248° West  Level Estimated
12:12PM 58.7375 -31.3343 248° West  Level Estimated
12:13PM 58.6949 -31.5350 248° West  Level Estimated
12:14PM 58.6520 -31.7351 248° West  Level Estimated
12:15PM 58.6087 -31.9348 247° West  Level Estimated
12:16PM 58.5652 -32.1340 247° West  Level Estimated
12:17PM 58.5213 -32.3327 247° West  Level Estimated
12:18PM 58.4771 -32.5308 247° West  Level Estimated
12:19PM 58.4327 -32.7285 247° West  Level Estimated
12:20PM 58.3879 -32.9257 247° West  Level Estimated
12:21PM 58.3428 -33.1224 246° West  Level Estimated
12:22PM 58.2974 -33.3186 246° West  Level Estimated
12:23PM 58.2517 -33.5143 246° West  Level Estimated
12:24PM 58.2058 -33.7094 246° West  Level Estimated
12:25PM 58.1595 -33.9041 246° West  Level Estimated
12:26PM 58.1129 -34.0983 246° West  Level Estimated
12:27PM 58.0660 -34.2919 245° Southwest  Level Estimated
12:28PM 58.0189 -34.4851 245° Southwest  Level Estimated
12:29PM 57.9714 -34.6777 245° Southwest  Level Estimated
12:30PM 57.9237 -34.8698 245° Southwest  Level Estimated
12:31PM 57.8757 -35.0614 245° Southwest  Level Estimated
12:32PM 57.8273 -35.2525 245° Southwest  Level Estimated
12:33PM 57.7787 -35.4431 245° Southwest  Level Estimated
12:34PM 57.7298 -35.6332 244° Southwest  Level Estimated
12:35PM 57.6807 -35.8227 244° Southwest  Level Estimated
12:36PM 57.6312 -36.0118 244° Southwest  Level Estimated
12:37PM 57.5815 -36.2003 244° Southwest  Level Estimated
12:38PM 57.5314 -36.3883 244° Southwest  Level Estimated
12:39PM 57.4812 -36.5758 244° Southwest  Level Estimated
12:40PM 57.4306 -36.7627 243° Southwest  Level Estimated
12:41PM 57.3797 -36.9492 243° Southwest  Level Estimated
12:42PM 57.3286 -37.1352 243° Southwest  Level Estimated
12:43PM 57.2772 -37.3206 243° Southwest  Level Estimated
12:44PM 57.2255 -37.5055 243° Southwest  Level Estimated
12:45PM 57.1736 -37.6898 243° Southwest  Level Estimated
12:46PM 57.1214 -37.8737 242° Southwest  Level Estimated
12:47PM 57.0689 -38.0571 242° Southwest  Level Estimated
12:48PM 57.0162 -38.2399 242° Southwest  Level Estimated
12:49PM 56.9632 -38.4222 242° Southwest  Level Estimated
12:50PM 56.9099 -38.6040 242° Southwest  Level Estimated
12:51PM 56.8563 -38.7853 242° Southwest  Level Estimated
12:52PM 56.8025 -38.9660 242° Southwest  Level Estimated
12:53PM 56.7485 -39.1462 241° Southwest  Level Estimated
12:54PM 56.6941 -39.3260 241° Southwest  Level Estimated
12:55PM 56.6396 -39.5051 241° Southwest  Level Estimated
12:56PM 56.5847 -39.6838 241° Southwest  Level Estimated
12:57PM 56.5296 -39.8620 241° Southwest  Level Estimated
12:58PM 56.4743 -40.0396 241° Southwest  Level Estimated
12:59PM 56.4187 -40.2167 240° Southwest  Level Estimated
01:00PM 56.3629 -40.3933 240° Southwest  Level Estimated
01:01PM 56.3068 -40.5694 240° Southwest  Level Estimated
01:02PM 56.2504 -40.7449 240° Southwest  Level Estimated
01:03PM 56.1938 -40.9200 240° Southwest  Level Estimated
01:04PM 56.1370 -41.0945 240° Southwest  Level Estimated
01:05PM 56.0799 -41.2685 240° Southwest  Level Estimated
01:06PM 56.0225 -41.4420 239° Southwest  Level Estimated
01:07PM 55.9650 -41.6150 239° Southwest  Level Estimated
01:08PM 55.9072 -41.7875 239° Southwest  Level Estimated
01:09PM 55.8491 -41.9594 239° Southwest  Level Estimated
01:10PM 55.7908 -42.1309 239° Southwest  Level Estimated
01:11PM 55.7323 -42.3018 239° Southwest  Level Estimated
01:12PM 55.6735 -42.4722 239° Southwest  Level Estimated
01:13PM 55.6145 -42.6421 238° Southwest  Level Estimated
01:14PM 55.5552 -42.8115 238° Southwest  Level Estimated
01:15PM 55.4958 -42.9804 238° Southwest  Level Estimated
01:16PM 55.4361 -43.1488 238° Southwest  Level Estimated
01:17PM 55.3761 -43.3166 238° Southwest  Level Estimated
01:18PM 55.3160 -43.4840 238° Southwest  Level Estimated
01:19PM 55.2556 -43.6508 238° Southwest  Level Estimated
01:20PM 55.1950 -43.8171 237° Southwest  Level Estimated
01:21PM 55.1341 -43.9830 237° Southwest  Level Estimated
01:22PM 55.0731 -44.1483 237° Southwest  Level Estimated
01:23PM 55.0118 -44.3131 237° Southwest  Level Estimated
01:24PM 54.9503 -44.4774 237° Southwest  Level Estimated
01:25PM 54.8885 -44.6412 237° Southwest  Level Estimated
01:26PM 54.8266 -44.8045 237° Southwest  Level Estimated
01:27PM 54.7644 -44.9673 237° Southwest  Level Estimated
01:28PM 54.7020 -45.1296 236° Southwest  Level Estimated
01:29PM 54.6394 -45.2914 236° Southwest  Level Estimated
01:30PM 54.5766 -45.4528 236° Southwest  Level Estimated
01:31PM 54.5136 -45.6136 236° Southwest  Level Estimated
01:32PM 54.4503 -45.7739 236° Southwest  Level Estimated
01:33PM 54.3869 -45.9337 236° Southwest  Level Estimated
01:34PM 54.3232 -46.0930 236° Southwest  Level Estimated
01:35PM 54.2593 -46.2518 235° Southwest  Level Estimated
01:36PM 54.1952 -46.4102 235° Southwest  Level Estimated
01:37PM 54.1309 -46.5680 235° Southwest  Level Estimated
01:38PM 54.0664 -46.7254 235° Southwest  Level Estimated
01:39PM 54.0017 -46.8823 235° Southwest  Level Estimated
01:40PM 53.9368 -47.0386 235° Southwest  Level Estimated
01:41PM 53.8717 -47.1945 235° Southwest  Level Estimated
01:42PM 53.8064 -47.3499 235° Southwest  Level Estimated
01:43PM 53.7409 -47.5049 234° Southwest  Level Estimated
01:44PM 53.6752 -47.6593 234° Southwest  Level Estimated
01:45PM 53.6093 -47.8133 234° Southwest  Level Estimated
01:46PM 53.5432 -47.9667 234° Southwest  Level Estimated
01:47PM 53.4769 -48.1197 234° Southwest  Level Estimated
01:48PM 53.4104 -48.2723 234° Southwest  Level Estimated
01:49PM 53.3437 -48.4243 234° Southwest  Level Estimated
01:50PM 53.2768 -48.5759 234° Southwest  Level Estimated
01:51PM 53.2097 -48.7270 233° Southwest  Level Estimated
01:52PM 53.1424 -48.8776 233° Southwest  Level Estimated
01:53PM 53.0750 -49.0277 233° Southwest  Level Estimated
01:54PM 53.0074 -49.1774 233° Southwest  Level Estimated
01:55PM 52.9395 -49.3266 233° Southwest  Level Estimated
01:56PM 52.8715 -49.4754 233° Southwest  Level Estimated
01:57PM 52.8033 -49.6236 233° Southwest  Level Estimated
01:58PM 52.7349 -49.7715 233° Southwest  Level Estimated
01:59PM 52.6664 -49.9188 233° Southwest  Level Estimated
02:00PM 52.5976 -50.0657 232° Southwest  Level Estimated
02:01PM 52.5287 -50.2121 232° Southwest  Level Estimated
02:02PM 52.4596 -50.3581 232° Southwest  Level Estimated
02:03PM 52.3903 -50.5036 232° Southwest  Level Estimated
02:04PM 52.3208 -50.6487 232° Southwest  Level Estimated
02:05PM 52.2511 -50.7933 232° Southwest  Level Estimated
02:06PM 52.1813 -50.9374 232° Southwest  Level Estimated
02:07PM 52.1113 -51.0811 232° Southwest  Level Estimated
02:08PM 52.0412 -51.2243 231° Southwest  Level Estimated
02:09PM 51.9708 -51.3671 231° Southwest  Level Estimated
02:10PM 51.9003 -51.5094 231° Southwest  Level Estimated
02:11PM 51.8296 -51.6513 231° Southwest  Level Estimated
02:12PM 51.7587 -51.7928 231° Southwest  Level Estimated
02:13PM 51.6877 -51.9338 231° Southwest  Level Estimated
02:14PM 51.6165 -52.0743 231° Southwest  Level Estimated
02:15PM 51.5452 -52.2145 231° Southwest  Level Estimated
02:16PM 51.4736 -52.3541 231° Southwest  Level Estimated
02:17PM 51.4019 -52.4934 230° Southwest  Level Estimated
02:18PM 51.3301 -52.6322 230° Southwest  Level Estimated
02:19PM 51.2580 -52.7706 230° Southwest  Level Estimated
02:20PM 51.1858 -52.9085 230° Southwest  Level Estimated
02:21PM 51.1135 -53.0460 230° Southwest  Level Estimated
02:22PM 51.0410 -53.1831 230° Southwest  Level Estimated
02:23PM 50.9683 -53.3198 230° Southwest  Level Estimated
02:24PM 50.8955 -53.4560 230° Southwest  Level Estimated
02:25PM 50.8225 -53.5918 230° Southwest  Level Estimated
02:26PM 50.7494 -53.7271 230° Southwest  Level Estimated
02:27PM 50.6761 -53.8621 229° Southwest  Level Estimated
02:28PM 50.6026 -53.9966 229° Southwest  Level Estimated
02:29PM 50.5290 -54.1307 229° Southwest  Level Estimated
02:30PM 50.4552 -54.2644 229° Southwest  Level Estimated
02:31PM 50.3813 -54.3977 229° Southwest  Level Estimated
02:32PM 50.3073 -54.5305 229° Southwest  Level Estimated
02:33PM 50.2330 -54.6630 229° Southwest  Level Estimated
02:34PM 50.1587 -54.7950 229° Southwest  Level Estimated
02:35PM 50.0841 -54.9266 229° Southwest  Level Estimated
02:36PM 50.0095 -55.0578 229° Southwest  Level Estimated
02:37PM 49.9347 -55.1886 228° Southwest  Level Estimated
02:38PM 49.8597 -55.3190 228° Southwest  Level Estimated
02:39PM 49.7846 -55.4490 228° Southwest  Level Estimated
02:40PM 49.7094 -55.5786 228° Southwest  Level Estimated
02:41PM 49.6340 -55.7078 228° Southwest  Level Estimated
02:42PM 49.5584 -55.8366 228° Southwest  Level Estimated
02:43PM 49.4827 -55.9650 228° Southwest  Level Estimated
02:44PM 49.4069 -56.0930 228° Southwest  Level Estimated
02:45PM 49.3310 -56.2206 228° Southwest  Level Estimated
02:46PM 49.2549 -56.3478 228° Southwest  Level Estimated
02:47PM 49.1786 -56.4746 227° Southwest  Level Estimated
02:48PM 49.1022 -56.6010 227° Southwest  Level Estimated
02:49PM 49.0257 -56.7271 227° Southwest  Level Estimated
02:50PM 48.9491 -56.8527 227° Southwest  Level Estimated
02:51PM 48.8723 -56.9780 227° Southwest  Level Estimated
02:52PM 48.7953 -57.1029 227° Southwest  Level Estimated
02:53PM 48.7183 -57.2274 227° Southwest  Level Estimated
02:54PM 48.6411 -57.3515 227° Southwest  Level Estimated
02:55PM 48.5638 -57.4752 227° Southwest  Level Estimated
02:56PM 48.4863 -57.5986 227° Southwest  Level Estimated
02:57PM 48.4087 -57.7215 226° Southwest  Level Estimated
02:58PM 48.3310 -57.8442 226° Southwest  Level Estimated
02:59PM 48.2532 -57.9664 226° Southwest  Level Estimated
03:00PM 48.1752 -58.0882 226° Southwest  Level Estimated
03:01PM 48.0971 -58.2097 226° Southwest  Level Estimated
03:02PM 48.0188 -58.3308 226° Southwest  Level Estimated
03:03PM 47.9405 -58.4516 226° Southwest  Level Estimated
03:04PM 47.8620 -58.5720 226° Southwest  Level Estimated
03:05PM 47.7834 -58.6920 226° Southwest  Level Estimated
03:06PM 47.7046 -58.8117 226° Southwest  Level Estimated
03:07PM 47.6258 -58.9310 226° Southwest  Level Estimated
03:08PM 47.5468 -59.0499 225° Southwest  Level Estimated
03:09PM 47.4677 -59.1685 225° Southwest  Level Estimated
03:10PM 47.3884 -59.2867 225° Southwest  Level Estimated
03:11PM 47.3091 -59.4046 225° Southwest  Level Estimated
03:12PM 47.2296 -59.5221 225° Southwest  Level Estimated
03:13PM 47.1500 -59.6393 225° Southwest  Level Estimated
03:14PM 47.0703 -59.7561 225° Southwest  Level Estimated
03:15PM 46.9905 -59.8725 225° Southwest  Level Estimated
03:16PM 46.9105 -59.9887 225° Southwest  Level Estimated
03:17PM 46.8305 -60.1044 225° Southwest  Level Estimated
03:18PM 46.7503 -60.2198 225° Southwest  Level Estimated
03:19PM 46.6700 -60.3349 225° Southwest  Level Estimated
03:20PM 46.5896 -60.4497 224° Southwest  Level Estimated
03:21PM 46.5090 -60.5641 224° Southwest  Level Estimated
03:22PM 46.4284 -60.6781 224° Southwest  Level Estimated
03:23PM 46.3476 -60.7918 224° Southwest  Level Estimated
03:24PM 46.2668 -60.9052 224° Southwest  Level Estimated
03:25PM 46.1858 -61.0183 224° Southwest  Level Estimated
03:26PM 46.1047 -61.1310 224° Southwest  Level Estimated
03:27PM 46.0235 -61.2434 224° Southwest  Level Estimated
03:28PM 45.9422 -61.3554 224° Southwest  Level Estimated
03:29PM 45.8608 -61.4672 224° Southwest  Level Estimated
03:30PM 45.7793 -61.5786 224° Southwest  Level Estimated
03:31PM 45.6976 -61.6897 224° Southwest  Level Estimated
03:32PM 45.6159 -61.8004 223° Southwest  Level Estimated
03:33PM 45.5340 -61.9108 223° Southwest  Level Estimated
03:34PM 45.4521 -62.0210 223° Southwest  Level Estimated
03:35PM 45.3700 -62.1307 223° Southwest  Level Estimated
03:36PM 45.2878 -62.2402 223° Southwest  Level Estimated
03:37PM 45.2056 -62.3494 223° Southwest  Level Estimated
03:38PM 45.1232 -62.4582 223° Southwest  Level Estimated
03:39PM 45.0407 -62.5667 223° Southwest  Level Estimated
03:40PM 44.9581 -62.6749 223° Southwest  Level Estimated
03:41PM 44.8755 -62.7828 223° Southwest  Level Estimated
03:42PM 44.7927 -62.8904 223° Southwest  Level Estimated
03:43PM 44.7098 -62.9977 223° Southwest  Level Estimated
03:44PM 44.6268 -63.1047 223° Southwest  Level Estimated
03:45PM 44.5438 -63.2114 222° Southwest  Level Estimated
03:46PM 44.4606 -63.3177 222° Southwest  Level Estimated
03:47PM 44.3773 -63.4238 222° Southwest  Level Estimated
03:48PM 44.2939 -63.5296 222° Southwest  Level Estimated
03:49PM 44.2104 -63.6350 222° Southwest  Level Estimated
03:50PM 44.1269 -63.7402 222° Southwest  Level Estimated
03:51PM 44.0432 -63.8451 222° Southwest  Level Estimated
03:52PM 43.9594 -63.9496 222° Southwest  Level Estimated
03:53PM 43.8756 -64.0539 222° Southwest  Level Estimated
03:54PM 43.7916 -64.1579 222° Southwest  Level Estimated
03:55PM 43.7076 -64.2616 222° Southwest  Level Estimated
03:56PM 43.6234 -64.3650 222° Southwest  Level Estimated
03:57PM 43.5392 -64.4681 222° Southwest  Level Estimated
03:58PM 43.4549 -64.5709 222° Southwest  Level Estimated
03:59PM 43.3705 -64.6734 221° Southwest  Level Estimated
04:00PM 43.2859 -64.7757 221° Southwest  Level Estimated
04:01PM 43.2014 -64.8777 221° Southwest  Level Estimated
04:02PM 43.1167 -64.9793 221° Southwest  Level Estimated
04:03PM 43.0319 -65.0807 221° Southwest  Level Estimated
04:04PM 42.9470 -65.1819 221° Southwest  Level Estimated
04:05PM 42.8620 -65.2827 221° Southwest  Level Estimated
04:06PM 42.7770 -65.3833 221° Southwest  Level Estimated
04:07PM 42.6919 -65.4836 221° Southwest  Level Estimated
04:08PM 42.6067 -65.5836 221° Southwest  Level Estimated
04:09PM 42.5213 -65.6833 221° Southwest  Level Estimated
04:10PM 42.4360 -65.7828 221° Southwest  Level Estimated
04:11PM 42.3505 -65.8820 221° Southwest  Level Estimated
04:12PM 42.2649 -65.9809 221° Southwest  Level Estimated
04:13PM 42.1792 -66.0796 220° Southwest  Level Estimated
04:14PM 42.0935 -66.1780 220° Southwest  Level Estimated
04:15PM 42.0077 -66.2761 220° Southwest  Level Estimated
04:16PM 41.9218 -66.3740 220° Southwest  Level Estimated
04:17PM 41.8358 -66.4716 220° Southwest  Level Estimated
04:18PM 41.7497 -66.5689 220° Southwest  Level Estimated
04:19PM 41.6636 -66.6660 220° Southwest  Level Estimated
04:20PM 41.5774 -66.7628 220° Southwest  Level Estimated
04:21PM 41.4911 -66.8594 220° Southwest  Level Estimated
04:22PM 41.4047 -66.9557 220° Southwest  Level Estimated
04:23PM 41.3182 -67.0518 220° Southwest  Level Estimated
04:24PM 41.2317 -67.1476 220° Southwest  Level Estimated
04:25PM 41.1450 -67.2431 220° Southwest  Level Estimated
04:26PM 41.0583 -67.3384 220° Southwest  Level Estimated
04:27PM 40.9715 -67.4334 220° Southwest  Level Estimated
04:28PM 40.8847 -67.5282 220° Southwest  Level Estimated
04:29PM 40.7977 -67.6227 219° Southwest  Level Estimated
04:30PM 40.7107 -67.7170 219° Southwest  Level Estimated
04:31PM 40.6236 -67.8111 219° Southwest  Level Estimated
04:32PM 40.5364 -67.9049 219° Southwest  Level Estimated
04:33PM 40.4492 -67.9985 219° Southwest  Level Estimated
04:34PM 40.3619 -68.0918 219° Southwest  Level Estimated
04:35PM 40.2744 -68.1848 219° Southwest  Level Estimated
04:36PM 40.1870 -68.2777 219° Southwest  Level Estimated
04:37PM 40.0994 -68.3702 219° Southwest  Level Estimated
04:38PM 40.0118 -68.4626 219° Southwest  Level Estimated
04:39PM 39.9241 -68.5547 219° Southwest  Level Estimated
04:40PM 39.8363 -68.6466 219° Southwest  Level Estimated
04:41PM 39.7485 -68.7383 219° Southwest  Level Estimated
04:42PM 39.6606 -68.8297 219° Southwest  Level Estimated
04:43PM 39.5726 -68.9209 219° Southwest  Level Estimated
04:44PM 39.4846 -69.0118 219° Southwest  Level Estimated
04:45PM 39.3965 -69.1025 219° Southwest  Level Estimated
04:46PM 39.3083 -69.1930 218° Southwest  Level Estimated
04:47PM 39.2200 -69.2833 218° Southwest  Level Estimated
04:48PM 39.1317 -69.3733 218° Southwest  Level Estimated
04:49PM 39.0433 -69.4631 218° Southwest  Level Estimated
04:50PM 38.9548 -69.5527 218° Southwest  Level Estimated
04:51PM 38.8663 -69.6421 218° Southwest  Level Estimated
04:52PM 38.7776 -69.7312 218° Southwest  Level Estimated
04:53PM 38.6890 -69.8201 218° Southwest  Level Estimated
04:54PM 38.6002 -69.9088 218° Southwest  Level Estimated
04:55PM 38.5114 -69.9973 218° Southwest  Level Estimated
04:56PM 38.4226 -70.0856 218° Southwest  Level Estimated
04:57PM 38.3336 -70.1736 218° Southwest  Level Estimated
04:58PM 38.2446 -70.2615 218° Southwest  Level Estimated
04:59PM 38.1555 -70.3491 218° Southwest  Level Estimated
05:00PM 38.0664 -70.4365 218° Southwest  Level Estimated
05:01PM 37.9772 -70.5237 218° Southwest  Level Estimated
05:02PM 37.8879 -70.6106 218° Southwest  Level Estimated
05:03PM 37.7986 -70.6974 218° Southwest  Level Estimated
05:04PM 37.7092 -70.7840 217° Southwest  Level Estimated
05:05PM 37.6197 -70.8703 217° Southwest  Level Estimated
05:06PM 37.5302 -70.9565 217° Southwest  Level Estimated
05:07PM 37.4406 -71.0424 217° Southwest  Level Estimated
05:08PM 37.3510 -71.1281 217° Southwest  Level Estimated
05:09PM 37.2613 -71.2136 217° Southwest  Level Estimated
05:10PM 37.1715 -71.2990 217° Southwest  Level Estimated
05:11PM 37.0817 -71.3841 217° Southwest  Level Estimated
05:12PM 36.9918 -71.4690 217° Southwest  Level Estimated
05:13PM 36.9019 -71.5537 217° Southwest  Level Estimated
05:14PM 36.8118 -71.6382 217° Southwest  Level Estimated
05:15PM 36.7218 -71.7225 217° Southwest  Level Estimated
05:16PM 36.6316 -71.8066 217° Southwest  Level Estimated
05:17PM 36.5415 -71.8906 217° Southwest  Level Estimated
05:18PM 36.4512 -71.9743 217° Southwest  Level Estimated
05:19PM 36.3609 -72.0578 217° Southwest  Level Estimated
05:20PM 36.2705 -72.1412 217° Southwest  Level Estimated
05:21PM 36.1801 -72.2243 217° Southwest  Level Estimated
05:22PM 36.0896 -72.3073 217° Southwest  Level Estimated
05:23PM 35.9991 -72.3900 216° Southwest  Level Estimated
05:24PM 35.9085 -72.4726 216° Southwest  Level Estimated
05:25PM 35.8179 -72.5550 216° Southwest  Level Estimated
05:26PM 35.7272 -72.6372 216° Southwest  Level Estimated
05:27PM 35.6364 -72.7192 216° Southwest  Level Estimated
05:28PM 35.5456 -72.8010 216° Southwest  Level Estimated
05:29PM 35.4547 -72.8826 216° Southwest  Level Estimated
05:30PM 35.3638 -72.9641 216° Southwest  Level Estimated
05:31PM 35.2728 -73.0454 216° Southwest  Level Estimated
05:32PM 35.1818 -73.1264 216° Southwest  Level Estimated
05:33PM 35.0907 -73.2074 216° Southwest  Level Estimated
05:34PM 34.9996 -73.2881 216° Southwest  Level Estimated
05:35PM 34.9084 -73.3686 216° Southwest  Level Estimated
05:36PM 34.8171 -73.4490 216° Southwest  Level Estimated
05:37PM 34.7258 -73.5292 216° Southwest  Level Estimated
05:38PM 34.6345 -73.6092 216° Southwest  Level Estimated
05:39PM 34.5431 -73.6890 216° Southwest  Level Estimated
05:40PM 34.4516 -73.7687 216° Southwest  Level Estimated
05:41PM 34.3601 -73.8482 216° Southwest  Level Estimated
05:42PM 34.2686 -73.9275 216° Southwest  Level Estimated
05:43PM 34.1769 -74.0067 216° Southwest  Level Estimated
05:44PM 34.0853 -74.0856 216° Southwest  Level Estimated
05:45PM 33.9936 -74.1644 215° Southwest  Level Estimated
05:46PM 33.9018 -74.2430 215° Southwest  Level Estimated
05:47PM 33.8100 -74.3215 215° Southwest  Level Estimated
05:48PM 33.7181 -74.3998 215° Southwest  Level Estimated
05:49PM 33.6262 -74.4779 215° Southwest  Level Estimated
05:50PM 33.5343 -74.5559 215° Southwest  Level Estimated
05:51PM 33.4423 -74.6337 215° Southwest  Level Estimated
05:52PM 33.3502 -74.7113 215° Southwest  Level Estimated
05:53PM 33.2581 -74.7888 215° Southwest  Level Estimated
05:54PM 33.1660 -74.8661 215° Southwest  Level Estimated
05:55PM 33.0737 -74.9432 215° Southwest  Level Estimated
05:56PM 32.9815 -75.0202 215° Southwest  Level Estimated
05:57PM 32.8892 -75.0970 215° Southwest  Level Estimated
05:58PM 32.7969 -75.1736 215° Southwest  Level Estimated
05:59PM 32.7045 -75.2501 215° Southwest  Level Estimated
06:00PM 32.6120 -75.3265 215° Southwest  Level Estimated
06:01PM 32.5196 -75.4027 215° Southwest  Level Estimated
06:02PM 32.4270 -75.4787 215° Southwest  Level Estimated
06:03PM 32.3345 -75.5546 215° Southwest  Level Estimated
06:04PM 32.2419 -75.6303 215° Southwest  Level Estimated
06:05PM 32.1492 -75.7058 215° Southwest  Level Estimated
06:06PM 32.0565 -75.7812 215° Southwest  Level Estimated
06:07PM 31.9637 -75.8565 215° Southwest  Level Estimated
06:08PM 31.8709 -75.9316 215° Southwest  Level Estimated
06:09PM 31.7781 -76.0065 214° Southwest  Level Estimated
06:10PM 31.6852 -76.0813 214° Southwest  Level Estimated
06:11PM 31.5923 -76.1560 214° Southwest  Level Estimated
06:12PM 31.4993 -76.2305 214° Southwest  Level Estimated
06:13PM 31.4063 -76.3048 214° Southwest  Level Estimated
06:14PM 31.3132 -76.3790 214° Southwest  Level Estimated
06:15PM 31.2201 -76.4531 214° Southwest  Level Estimated
06:16PM 31.1270 -76.5270 214° Southwest  Level Estimated
06:17PM 31.0338 -76.6008 214° Southwest  Level Estimated
06:18PM 30.9406 -76.6744 214° Southwest  Level Estimated
06:19PM 30.8473 -76.7479 214° Southwest  Level Estimated
06:20PM 30.7540 -76.8212 214° Southwest  Level Estimated
06:21PM 30.6607 -76.8944 214° Southwest  Level Estimated
06:22PM 30.5673 -76.9674 214° Southwest  Level Estimated
06:23PM 30.4739 -77.0404 214° Southwest  Level Estimated
06:24PM 30.3804 -77.1131 214° Southwest  Level Estimated
06:25PM 30.2869 -77.1858 214° Southwest  Level Estimated
06:26PM 30.1933 -77.2582 214° Southwest  Level Estimated
06:27PM 30.0997 -77.3306 214° Southwest  Level Estimated
06:28PM 30.0061 -77.4028 214° Southwest  Level Estimated
06:29PM 29.9124 -77.4749 214° Southwest  Level Estimated
06:30PM 29.8187 -77.5469 214° Southwest  Level Estimated
06:31PM 29.7250 -77.6187 214° Southwest  Level Estimated
06:32PM 29.6312 -77.6904 214° Southwest  Level Estimated
06:33PM 29.5373 -77.7619 214° Southwest  Level Estimated
06:34PM 29.4435 -77.8333 214° Southwest  Level Estimated
06:35PM 29.3496 -77.9046 213° Southwest  Level Estimated
06:36PM 29.2556 -77.9757 213° Southwest  Level Estimated
06:37PM 29.1617 -78.0468 213° Southwest  Level Estimated
06:38PM 29.0677 -78.1177 213° Southwest  Level Estimated
06:39PM 28.9736 -78.1884 213° Southwest  Level Estimated
06:40PM 28.8795 -78.2590 213° Southwest  Level Estimated
06:41PM 28.7854 -78.3296 213° Southwest  Level Estimated
06:42PM 28.6912 -78.3999 213° Southwest  Level Estimated
06:43PM 28.5970 -78.4702 213° Southwest  Level Estimated
06:44PM 28.5028 -78.5403 213° Southwest  Level Estimated
06:45PM 28.4085 -78.6103 213° Southwest  Level Estimated
06:46PM 28.3142 -78.6802 213° Southwest  Level Estimated
06:47PM 28.2199 -78.7499 213° Southwest  Level Estimated
06:48PM 28.1255 -78.8196 213° Southwest  Level Estimated
06:49PM 28.0311 -78.8891 213° Southwest  Level Estimated
06:50PM 27.9366 -78.9585 213° Southwest  Level Estimated
06:51PM 27.8422 -79.0277 213° Southwest  Level Estimated
06:52PM 27.7476 -79.0969 213° Southwest  Level Estimated
06:53PM 27.6531 -79.1659 213° Southwest  Level Estimated
06:54PM 27.5585 -79.2348 213° Southwest  Level Estimated
06:55PM 27.4639 -79.3036 213° Southwest  Level Estimated
06:56PM 27.3692 -79.3722 213° Southwest  Level Estimated
06:57PM 27.2745 -79.4408 213° Southwest  Level Estimated
06:58PM 27.1798 -79.5092 213° Southwest  Level Estimated
06:59PM 27.0851 -79.5775 213° Southwest  Level Estimated
07:00PM 26.9903 -79.6457 213° Southwest  Level Estimated
07:01PM 26.8955 -79.7138 213° Southwest  Level Estimated
07:02PM 26.8006 -79.7818 213° Southwest  Level Estimated
07:03PM 26.7057 -79.8497 213° Southwest  Level Estimated
07:04PM 26.6108 -79.9174 213° Southwest  Level Estimated
07:05PM 26.5159 -79.9850 213° Southwest  Level Estimated
07:06PM 26.4209 -80.0526 212° Southwest  Level Estimated
07:07PM 26.3259 -80.1200 212° Southwest  Level Estimated
07:08PM 26.2309 -80.1873 212° Southwest  Level Estimated
07:09PM 26.1358 -80.2545 212° Southwest  Level Estimated
07:10PM 26.0407 -80.3215 212° Southwest  Level Estimated
07:11PM 25.9456 -80.3885 212° Southwest  Level Estimated
07:12PM 25.8504 -80.4554 212° Southwest  Level Estimated
07:13PM 25.7552 -80.5221 212° Southwest  Level Estimated
07:14PM 25.6600 -80.5888 212° Southwest  Level Estimated
07:15PM 25.5647 -80.6553 212° Southwest  Level Estimated
07:16PM 25.4694 -80.7218 212° Southwest  Level Estimated
07:17PM 25.3741 -80.7881 212° Southwest  Level Estimated
07:18PM 25.2787 -80.8543 212° Southwest  Level Estimated
07:19PM 25.1833 -80.9204 212° Southwest  Level Estimated
07:20PM 25.0879 -80.9865 212° Southwest  Level Estimated
07:21PM 24.9925 -81.0524 212° Southwest  Level Estimated
07:22PM 24.8971 -81.1182 212° Southwest  Level Estimated
07:23PM 24.8016 -81.1839 212° Southwest  Level Estimated
07:24PM 24.7060 -81.2495 212° Southwest  Level Estimated
07:25PM 24.6105 -81.3150 212° Southwest  Level Estimated
07:26PM 24.5149 -81.3804 212° Southwest  Level Estimated
07:27PM 24.4193 -81.4457 212° Southwest  Level Estimated
07:28PM 24.3237 -81.5110 212° Southwest  Level Estimated
07:29PM 24.2280 -81.5761 212° Southwest  Level Estimated
07:30PM 24.1323 -81.6411 212° Southwest  Level Estimated
07:31PM 24.0366 -81.7060 212° Southwest  Level Estimated
07:32PM 23.9409 -81.7708 212° Southwest  Level Estimated
07:33PM 23.8451 -81.8356 212° Southwest  Level Estimated
07:34PM 23.7493 -81.9002 212° Southwest  Level Estimated
07:35PM 23.6535 -81.9647 212° Southwest  Level Estimated
07:36PM 23.5576 -82.0292 212° Southwest  Level Estimated
07:37PM 23.4617 -82.0935 212° Southwest  Level Estimated
07:38PM 23.3658 -82.1578 212° Southwest  Level Estimated
07:39PM 23.2699 -82.2219 212° Southwest  Level Estimated
07:40PM 23.1739 -82.2860 212° Southwest  Level Estimated